Time;durP1;ratioP1;P1;durP2;ratioP2;P2;SDS_P1;SDS_P2;PMS_P1;PMS_P2;Temp;Humidity;BMP_temperature;BMP_pressure;BME280_temperature;BME280_humidity;BME280_pressure;Samples;Min_cycle;Max_cycle;Signal;HPM_P1;HPM_P2
2021/09/10 00:00:35;;;;;;;50.85;31.92;;;;;;;12.93;61.09;101305.49;461716;113;922804;-81
2021/09/10 00:01:39;;;;;;;50.84;31.99;;;;;;;12.89;61.22;101296.03;462413;114;922182;-81
2021/09/10 00:02:43;;;;;;;56.62;31.63;;;;;;;12.87;61.37;101298.13;461308;112;922871;-81
2021/09/10 00:03:47;;;;;;;55.21;33.11;;;;;;;12.83;61.50;101303.20;461048;114;922623;-80
2021/09/10 00:04:51;;;;;;;56.86;31.47;;;;;;;12.80;61.51;101300.02;461862;113;922735;-81
2021/09/10 00:05:54;;;;;;;48.55;32.38;;;;;;;12.77;61.63;101294.98;461380;113;922778;-82
2021/09/10 00:06:58;;;;;;;51.32;33.91;;;;;;;12.73;61.64;101294.58;460462;114;930567;-81
2021/09/10 00:08:01;;;;;;;49.95;32.86;;;;;;;12.71;61.73;101295.83;460491;114;922455;-81
2021/09/10 00:09:05;;;;;;;51.74;33.45;;;;;;;12.68;61.83;101293.53;463129;114;923421;-82
2021/09/10 00:10:09;;;;;;;61.36;35.00;;;;;;;12.67;61.97;101292.69;461029;114;930256;-81
2021/09/10 00:11:12;;;;;;;71.89;35.21;;;;;;;12.64;62.10;101290.35;460462;113;922410;-82
2021/09/10 00:12:16;;;;;;;59.19;34.92;;;;;;;12.63;62.24;101293.29;460867;114;922556;-81
2021/09/10 00:13:20;;;;;;;72.72;36.85;;;;;;;12.63;62.36;101285.93;461569;113;922514;-81
2021/09/10 00:14:23;;;;;;;70.85;35.98;;;;;;;12.61;62.42;101288.05;461078;114;923004;-81
2021/09/10 00:15:27;;;;;;;75.27;35.52;;;;;;;12.62;62.46;101291.63;461563;114;922741;-80
2021/09/10 00:16:31;;;;;;;75.62;37.20;;;;;;;12.61;62.50;101284.47;460217;114;925663;-80
2021/09/10 00:17:35;;;;;;;83.07;37.94;;;;;;;12.60;62.58;101275.42;460640;113;922929;-82
2021/09/10 00:18:38;;;;;;;91.78;40.64;;;;;;;12.59;62.63;101286.56;461220;114;923004;-81
2021/09/10 00:19:42;;;;;;;88.44;38.78;;;;;;;12.58;62.67;101282.98;461328;114;922507;-81
2021/09/10 00:20:45;;;;;;;92.57;40.83;;;;;;;12.56;62.66;101287.00;453022;116;930554;-81
2021/09/10 00:21:49;;;;;;;89.99;40.92;;;;;;;12.54;62.71;101281.73;460670;114;928277;-81
2021/09/10 00:22:52;;;;;;;101.43;39.84;;;;;;;12.53;62.81;101283.63;461531;113;922800;-82
2021/09/10 00:23:55;;;;;;;94.27;40.46;;;;;;;12.54;62.81;101281.73;462433;113;922405;-82
2021/09/10 00:24:59;;;;;;;83.43;37.59;;;;;;;12.51;62.85;101282.17;462111;113;922954;-82
2021/09/10 00:26:02;;;;;;;82.89;38.76;;;;;;;12.51;62.85;101279.44;463210;113;926381;-81
2021/09/10 00:27:05;;;;;;;79.27;36.43;;;;;;;12.49;62.83;101285.11;462809;113;922985;-81
2021/09/10 00:28:09;;;;;;;80.52;37.01;;;;;;;12.49;62.69;101281.53;457035;114;922390;-81
2021/09/10 00:29:13;;;;;;;68.17;34.80;;;;;;;12.49;62.60;101284.27;457172;114;930689;-82
2021/09/10 00:30:16;;;;;;;57.65;31.70;;;;;;;12.48;62.38;101277.10;463088;113;923042;-82
2021/09/10 00:31:19;;;;;;;62.36;31.59;;;;;;;12.46;62.15;101282.77;451698;116;922844;-81
2021/09/10 00:32:23;;;;;;;56.77;30.92;;;;;;;12.45;61.97;101281.12;451961;116;930574;-82
2021/09/10 00:33:27;;;;;;;48.19;29.25;;;;;;;12.45;61.79;101281.12;462558;113;923119;-81
2021/09/10 00:34:31;;;;;;;54.98;30.55;;;;;;;12.43;61.63;101283.20;462839;113;930235;-81
2021/09/10 00:35:35;;;;;;;56.61;31.21;;;;;;;12.42;61.56;101280.67;462918;113;930534;-81
2021/09/10 00:36:39;;;;;;;53.08;32.06;;;;;;;12.42;61.51;101284.25;462729;113;930652;-81
2021/09/10 00:37:42;;;;;;;58.52;32.23;;;;;;;12.44;61.48;101278.58;463585;113;922396;-81
2021/09/10 00:38:45;;;;;;;59.75;32.65;;;;;;;12.45;61.44;101283.85;461292;113;922865;-81
2021/09/10 00:39:49;;;;;;;67.00;33.50;;;;;;;12.48;61.45;101282.57;461844;113;922588;-81
2021/09/10 00:40:53;;;;;;;87.80;36.24;;;;;;;12.48;61.40;101277.95;462882;113;928009;-81
2021/09/10 00:41:56;;;;;;;78.09;35.63;;;;;;;12.49;61.40;101287.00;462919;113;922874;-81
2021/09/10 00:43:00;;;;;;;90.01;38.56;;;;;;;12.48;61.45;101285.31;462530;113;922681;-81
2021/09/10 00:44:04;;;;;;;90.57;37.36;;;;;;;12.48;61.53;101291.63;461989;112;922900;-81
2021/09/10 00:45:08;;;;;;;84.56;36.02;;;;;;;12.49;61.61;101287.00;462334;113;922781;-80
2021/09/10 00:46:12;;;;;;;74.53;34.02;;;;;;;12.51;61.60;101284.91;462217;113;922751;-81
2021/09/10 00:47:16;;;;;;;73.79;34.60;;;;;;;12.53;61.52;101285.52;461475;113;922906;-81
2021/09/10 00:48:20;;;;;;;72.04;33.52;;;;;;;12.54;61.52;101287.20;463730;113;922554;-80
2021/09/10 00:49:25;;;;;;;76.01;33.97;;;;;;;12.56;61.50;101285.11;462471;113;922327;-80
2021/09/10 00:50:31;;;;;;;67.57;32.57;;;;;;;12.58;61.35;101282.98;463402;113;922378;-80
2021/09/10 00:51:35;;;;;;;70.28;33.16;;;;;;;12.59;61.18;101278.36;461838;113;922314;-80
2021/09/10 00:52:38;;;;;;;66.71;32.38;;;;;;;12.57;61.10;101273.09;462544;113;922511;-80
2021/09/10 00:53:42;;;;;;;61.10;31.18;;;;;;;12.57;61.05;101277.75;461645;113;922796;-80
2021/09/10 00:54:46;;;;;;;58.25;31.86;;;;;;;12.57;61.08;101275.02;463422;113;929999;-79
2021/09/10 00:55:49;;;;;;;68.69;32.01;;;;;;;12.56;61.04;101274.17;451675;117;922903;-81
2021/09/10 00:56:53;;;;;;;63.12;32.21;;;;;;;12.55;60.96;101277.95;451891;114;930199;-81
2021/09/10 00:57:57;;;;;;;55.03;28.32;;;;;;;12.53;60.89;101280.05;460958;113;930856;-80
2021/09/10 00:59:02;;;;;;;62.12;30.66;;;;;;;12.52;60.73;101276.47;460638;113;930454;-79
2021/09/10 01:00:06;;;;;;;56.46;28.81;;;;;;;12.49;60.60;101276.90;462613;113;922110;-80
2021/09/10 01:01:10;;;;;;;53.14;27.81;;;;;;;12.48;60.50;101279.84;463841;113;922308;-81
2021/09/10 01:02:13;;;;;;;85.38;34.86;;;;;;;12.45;60.49;101274.80;462847;113;922858;-81
2021/09/10 01:03:18;;;;;;;106.35;39.19;;;;;;;12.42;60.54;101278.78;460489;113;929915;-79
2021/09/10 01:04:22;;;;;;;102.83;39.58;;;;;;;12.41;60.63;101278.98;462359;113;930502;-80
2021/09/10 01:05:26;;;;;;;155.81;49.71;;;;;;;12.40;60.76;101275.44;463589;113;922901;-80
2021/09/10 01:06:30;;;;;;;193.32;58.20;;;;;;;12.38;60.82;101274.80;462085;113;922614;-81
2021/09/10 01:07:34;;;;;;;221.92;60.65;;;;;;;12.36;60.94;101270.57;461781;113;930207;-80
2021/09/10 01:08:40;;;;;;;195.67;59.62;;;;;;;12.32;61.09;101274.78;463155;113;922434;-81
2021/09/10 01:09:45;;;;;;;192.33;58.67;;;;;;;12.28;61.23;101279.00;460373;113;922551;-81
2021/09/10 01:10:50;;;;;;;198.32;57.12;;;;;;;12.24;61.41;101273.08;460900;113;922765;-80
2021/09/10 01:11:54;;;;;;;185.75;54.71;;;;;;;12.22;61.59;101275.20;462319;113;922517;-81
2021/09/10 01:12:59;;;;;;;165.27;54.38;;;;;;;12.20;61.66;101282.77;463901;113;922362;-81
2021/09/10 01:14:02;;;;;;;182.99;55.47;;;;;;;12.17;61.69;101274.14;461450;113;922896;-81
2021/09/10 01:15:06;;;;;;;165.62;53.35;;;;;;;12.13;61.80;101280.02;462738;113;923181;-81
2021/09/10 01:16:10;;;;;;;166.03;50.99;;;;;;;12.13;61.88;101281.09;460668;113;922551;-81
2021/09/10 01:17:14;;;;;;;167.36;51.28;;;;;;;12.10;61.92;101277.70;462128;113;922438;-81
2021/09/10 01:18:17;;;;;;;167.53;52.89;;;;;;;12.09;62.04;101281.48;462780;113;922440;-81
2021/09/10 01:19:30;;;;;;;161.95;51.40;;;;;;;12.09;62.05;101280.64;462893;113;928002;-81
2021/09/10 01:20:32;;;;;;;166.83;51.13;;;;;;;12.08;62.07;101278.95;461923;113;923097;-81
2021/09/10 01:21:35;;;;;;;162.26;50.45;;;;;;;12.07;62.08;101283.57;461318;113;922563;-81
2021/09/10 01:22:39;;;;;;;158.18;50.56;;;;;;;12.06;62.10;101284.65;456702;114;930457;-80
2021/09/10 01:23:43;;;;;;;159.36;49.66;;;;;;;12.03;62.10;101282.31;453091;115;922594;-79
2021/09/10 01:25:10;;;;;;;145.19;49.27;;;;;;;12.04;62.13;101280.42;446153;118;922474;-81
2021/09/10 01:26:12;;;;;;;139.99;47.47;;;;;;;12.03;62.16;101290.51;437227;121;930104;-81
2021/09/10 01:27:15;;;;;;;160.49;49.98;;;;;;;12.01;62.09;101281.70;444236;118;922675;-81
2021/09/10 01:28:19;;;;;;;137.60;45.67;;;;;;;12.00;62.09;101293.67;442819;118;926388;-81
2021/09/10 01:29:23;;;;;;;104.65;41.08;;;;;;;11.98;62.11;101286.72;444470;118;922668;-81
2021/09/10 01:30:30;;;;;;;83.96;36.05;;;;;;;11.97;62.06;101291.34;443914;118;930428;-81
2021/09/10 01:31:33;;;;;;;88.64;35.31;;;;;;;11.96;61.95;101292.38;437968;120;922522;-81
2021/09/10 01:32:37;;;;;;;76.04;32.88;;;;;;;11.96;61.85;101286.91;441124;119;922923;-81
2021/09/10 01:33:41;;;;;;;88.52;34.59;;;;;;;11.97;61.74;101293.22;442017;119;922733;-81
2021/09/10 01:34:44;;;;;;;95.25;37.19;;;;;;;11.96;61.71;101281.45;441369;119;922513;-81
2021/09/10 01:35:48;;;;;;;66.72;32.25;;;;;;;11.95;61.73;101282.52;442025;119;930356;-81
2021/09/10 01:36:52;;;;;;;46.16;28.71;;;;;;;11.94;61.67;101282.72;441729;119;922390;-80
2021/09/10 01:37:56;;;;;;;50.79;28.71;;;;;;;11.91;61.48;101283.95;437638;120;930316;-82
2021/09/10 01:39:00;;;;;;;64.78;29.61;;;;;;;11.87;61.38;101279.12;440240;120;930618;-81
2021/09/10 01:40:05;;;;;;;52.39;27.66;;;;;;;11.84;61.44;101280.39;445413;117;922467;-81
2021/09/10 01:41:09;;;;;;;43.07;27.75;;;;;;;11.81;61.44;101272.59;443204;118;922562;-80
2021/09/10 01:42:12;;;;;;;39.73;26.92;;;;;;;11.78;61.43;101278.48;442162;119;922793;-81
2021/09/10 01:43:16;;;;;;;58.38;29.21;;;;;;;11.76;61.41;101287.91;434263;121;922399;-80
2021/09/10 01:44:19;;;;;;;48.68;28.09;;;;;;;11.74;61.54;101279.95;441791;119;922118;-81
2021/09/10 01:45:23;;;;;;;50.07;27.09;;;;;;;11.74;61.66;101276.37;444884;119;930127;-80
2021/09/10 01:46:26;;;;;;;42.62;27.65;;;;;;;11.73;61.70;101283.72;434696;119;930014;-81
2021/09/10 01:47:31;;;;;;;49.77;28.11;;;;;;;11.73;61.78;101289.19;439795;118;922542;-81
2021/09/10 01:48:35;;;;;;;38.04;26.34;;;;;;;11.73;61.83;101285.58;443551;118;922790;-80
2021/09/10 01:49:38;;;;;;;43.22;26.84;;;;;;;11.72;61.84;101273.80;443144;119;922049;-81
2021/09/10 01:50:42;;;;;;;45.18;28.29;;;;;;;11.72;61.88;101282.00;442754;119;922604;-80
2021/09/10 01:51:46;;;;;;;44.74;27.45;;;;;;;11.72;61.96;101287.46;442061;119;922494;-80
2021/09/10 01:52:49;;;;;;;49.15;27.81;;;;;;;11.73;62.06;101291.03;443100;119;930446;-81
2021/09/10 01:53:52;;;;;;;46.29;26.79;;;;;;;11.75;62.17;101286.22;443348;119;930936;-82
2021/09/10 01:54:56;;;;;;;48.89;26.95;;;;;;;11.77;62.08;101284.14;436443;120;922670;-81
2021/09/10 01:55:59;;;;;;;51.23;27.53;;;;;;;11.78;62.11;101283.94;440774;119;928667;-82
2021/09/10 01:57:03;;;;;;;52.29;28.04;;;;;;;11.82;62.18;101278.90;437289;120;922913;-80
2021/09/10 01:58:06;;;;;;;41.55;26.38;;;;;;;11.83;62.21;101284.16;440399;120;922636;-82
2021/09/10 01:59:10;;;;;;;51.96;28.48;;;;;;;11.85;62.20;101279.34;440332;118;923422;-81
2021/09/10 02:00:15;;;;;;;51.95;27.13;;;;;;;11.88;62.13;101284.39;439853;118;922661;-80
2021/09/10 02:01:29;;;;;;;48.29;27.98;;;;;;;11.88;62.07;101283.55;444020;118;922553;-81
2021/09/10 02:02:33;;;;;;;43.51;26.97;;;;;;;11.87;62.09;101274.50;439752;120;923114;-81
2021/09/10 02:03:37;;;;;;;42.34;26.45;;;;;;;11.85;62.12;101279.34;437433;119;922758;-80
2021/09/10 02:04:41;;;;;;;38.27;26.32;;;;;;;11.83;62.19;101273.23;435907;120;923044;-81
2021/09/10 02:05:45;;;;;;;39.94;25.86;;;;;;;11.82;62.26;101271.55;444279;118;922568;-80
2021/09/10 02:06:49;;;;;;;40.76;26.42;;;;;;;11.82;62.30;101276.16;434563;121;922662;-80
2021/09/10 02:07:53;;;;;;;35.88;25.01;;;;;;;11.80;62.39;101281.02;441085;118;930453;-80
2021/09/10 02:08:56;;;;;;;39.54;25.68;;;;;;;11.80;62.39;101275.55;440997;119;923279;-80
2021/09/10 02:10:00;;;;;;;38.96;24.67;;;;;;;11.79;62.41;101276.59;434690;120;922595;-80
2021/09/10 02:11:03;;;;;;;35.36;25.84;;;;;;;11.78;62.36;101283.09;441305;119;922614;-80
2021/09/10 02:12:07;;;;;;;39.64;26.01;;;;;;;11.78;62.43;101280.37;440863;118;930314;-81
2021/09/10 02:13:11;;;;;;;34.00;25.55;;;;;;;11.76;62.49;101271.52;435912;121;930526;-80
2021/09/10 02:14:14;;;;;;;35.07;25.87;;;;;;;11.78;62.55;101277.63;453251;116;923112;-80
2021/09/10 02:15:18;;;;;;;32.61;23.31;;;;;;;11.79;62.68;101276.59;456852;116;922699;-81
2021/09/10 02:16:21;;;;;;;33.65;23.82;;;;;;;11.80;62.73;101275.55;453453;116;922588;-81
2021/09/10 02:17:25;;;;;;;30.56;24.74;;;;;;;11.82;62.72;101278.90;453514;116;922524;-81
2021/09/10 02:18:28;;;;;;;44.58;23.86;;;;;;;11.82;62.71;101277.02;454841;116;922963;-80
2021/09/10 02:19:32;;;;;;;34.72;24.36;;;;;;;11.83;62.71;101280.59;453571;116;925780;-81
2021/09/10 02:20:36;;;;;;;27.82;24.00;;;;;;;11.83;62.72;101275.97;454723;116;922584;-81
2021/09/10 02:21:39;;;;;;;29.15;23.52;;;;;;;11.83;62.73;101281.44;448864;117;922851;-82
2021/09/10 02:22:44;;;;;;;32.23;24.31;;;;;;;11.84;62.76;101280.39;448670;116;930983;-81
2021/09/10 02:23:47;;;;;;;32.46;23.59;;;;;;;11.82;62.73;101284.36;455052;114;930497;-81
2021/09/10 02:24:51;;;;;;;31.71;22.96;;;;;;;11.80;62.72;101273.63;458106;115;930590;-80
2021/09/10 02:25:54;;;;;;;38.60;21.71;;;;;;;11.78;62.68;101280.37;457914;115;930307;-79
2021/09/10 02:26:58;;;;;;;33.14;22.73;;;;;;;11.73;62.67;101278.25;458200;113;923176;-81
2021/09/10 02:28:02;;;;;;;37.79;22.13;;;;;;;11.69;62.61;101275.04;457724;113;922791;-80
2021/09/10 02:29:05;;;;;;;27.80;21.22;;;;;;;11.67;62.73;101281.77;458165;113;930743;-80
2021/09/10 02:30:10;;;;;;;29.64;22.81;;;;;;;11.65;62.82;101283.85;457525;113;930389;-80
2021/09/10 02:31:13;;;;;;;29.48;22.79;;;;;;;11.64;62.95;101276.70;458909;115;921999;-81
2021/09/10 02:32:17;;;;;;;28.19;22.34;;;;;;;11.65;62.95;101273.77;459475;115;922049;-80
2021/09/10 02:33:20;;;;;;;31.16;22.22;;;;;;;11.66;62.96;101263.69;459176;113;930560;-80
2021/09/10 02:34:24;;;;;;;27.20;20.88;;;;;;;11.68;62.93;101269.80;459066;115;922148;-82
2021/09/10 02:35:28;;;;;;;29.57;21.68;;;;;;;11.72;62.94;101265.61;458345;113;929816;-81
2021/09/10 02:36:31;;;;;;;27.30;21.84;;;;;;;11.74;62.89;101271.75;457821;115;930495;-81
2021/09/10 02:37:35;;;;;;;34.59;21.31;;;;;;;11.78;62.81;101272.17;458201;115;930173;-81
2021/09/10 02:38:38;;;;;;;31.90;20.72;;;;;;;11.81;62.76;101267.13;458207;115;928793;-81
2021/09/10 02:39:42;;;;;;;30.51;21.11;;;;;;;11.84;62.71;101264.00;458079;115;930268;-81
2021/09/10 02:40:46;;;;;;;30.01;20.85;;;;;;;11.88;62.64;101270.72;457865;115;923243;-81
2021/09/10 02:41:49;;;;;;;29.61;20.71;;;;;;;11.91;62.53;101261.28;458217;115;922589;-81
2021/09/10 02:42:53;;;;;;;33.64;22.06;;;;;;;11.92;62.34;101265.67;457904;115;922899;-81
2021/09/10 02:43:56;;;;;;;31.66;20.72;;;;;;;11.90;62.22;101260.44;457726;115;922455;-80
2021/09/10 02:45:00;;;;;;;27.97;19.75;;;;;;;11.91;62.14;101259.37;458228;115;923244;-82
2021/09/10 02:46:03;;;;;;;30.51;19.94;;;;;;;11.90;62.08;101265.91;457375;115;930407;-82
2021/09/10 02:47:07;;;;;;;32.31;20.76;;;;;;;11.90;62.01;101268.64;458046;115;922935;-80
2021/09/10 02:48:11;;;;;;;27.94;20.31;;;;;;;11.90;61.92;101270.52;457702;115;930855;-81
2021/09/10 02:49:14;;;;;;;21.24;18.84;;;;;;;11.89;61.81;101264.22;457937;115;930565;-81
2021/09/10 02:50:18;;;;;;;30.11;19.34;;;;;;;11.88;61.54;101267.98;456872;114;922559;-82
2021/09/10 02:51:25;;;;;;;23.81;17.86;;;;;;;11.84;61.40;101265.88;457245;115;922797;-81
2021/09/10 02:52:29;;;;;;;27.99;18.41;;;;;;;11.80;61.29;101268.17;458435;115;922510;-81
2021/09/10 02:53:32;;;;;;;23.25;18.25;;;;;;;11.76;61.17;101266.06;458330;115;922775;-81
2021/09/10 02:54:37;;;;;;;21.79;18.55;;;;;;;11.72;61.05;101265.61;458364;115;922552;-81
2021/09/10 02:55:41;;;;;;;18.84;16.81;;;;;;;11.68;61.02;101272.53;458525;115;930212;-80
2021/09/10 02:56:46;;;;;;;20.55;18.20;;;;;;;11.65;60.91;101270.20;458342;115;922994;-80
2021/09/10 02:57:50;;;;;;;22.39;17.86;;;;;;;11.62;60.85;101276.09;450262;118;922904;-81
2021/09/10 02:58:57;;;;;;;23.62;17.90;;;;;;;11.59;60.77;101268.28;440839;120;923415;-81
2021/09/10 03:00:01;;;;;;;27.91;19.25;;;;;;;11.57;60.75;101268.51;440946;120;923069;-81
2021/09/10 03:01:06;;;;;;;29.05;19.49;;;;;;;11.54;60.76;101268.90;439694;120;922855;-81
2021/09/10 03:02:10;;;;;;;30.91;20.64;;;;;;;11.53;60.83;101269.09;439633;120;923024;-81
2021/09/10 03:03:15;;;;;;;35.61;20.79;;;;;;;11.50;60.99;101267.63;445053;118;922525;-82
2021/09/10 03:04:20;;;;;;;33.32;19.85;;;;;;;11.46;61.17;101266.36;445402;118;922570;-82
2021/09/10 03:05:23;;;;;;;22.93;18.19;;;;;;;11.45;61.26;101270.13;445538;118;922550;-80
2021/09/10 03:06:27;;;;;;;28.06;18.50;;;;;;;11.44;61.35;101264.87;445417;118;930618;-81
2021/09/10 03:07:30;;;;;;;24.26;18.99;;;;;;;11.44;61.43;101273.06;445680;118;922568;-81
2021/09/10 03:08:34;;;;;;;23.21;18.89;;;;;;;11.43;61.55;101264.02;448507;118;923093;-81
2021/09/10 03:09:37;;;;;;;21.52;18.12;;;;;;;11.43;61.60;101274.10;443630;118;922660;-82
2021/09/10 03:10:41;;;;;;;31.33;20.27;;;;;;;11.43;61.58;101264.02;443578;118;922573;-81
2021/09/10 03:11:45;;;;;;;21.37;18.42;;;;;;;11.43;61.65;101264.02;444391;118;922837;-81
2021/09/10 03:12:49;;;;;;;35.11;20.04;;;;;;;11.44;61.55;101267.59;441451;119;923175;-80
2021/09/10 03:13:52;;;;;;;29.23;16.97;;;;;;;11.43;61.48;101260.45;450199;115;922621;-80
2021/09/10 03:14:56;;;;;;;24.74;17.15;;;;;;;11.42;61.41;101256.87;449231;118;930446;-80
2021/09/10 03:15:59;;;;;;;27.55;18.00;;;;;;;11.41;61.20;101268.84;449029;115;922603;-80
2021/09/10 03:17:03;;;;;;;23.01;17.90;;;;;;;11.40;61.05;101269.06;457868;115;930236;-81
2021/09/10 03:18:07;;;;;;;21.94;17.76;;;;;;;11.40;60.77;101269.06;458130;115;922749;-80
2021/09/10 03:19:10;;;;;;;20.00;16.69;;;;;;;11.40;60.77;101269.06;458815;115;930334;-80
2021/09/10 03:20:14;;;;;;;20.99;17.49;;;;;;;11.40;60.64;101269.06;458813;114;930187;-81
2021/09/10 03:21:18;;;;;;;20.56;17.61;;;;;;;11.38;60.52;101262.95;459401;115;930086;-80
2021/09/10 03:22:21;;;;;;;24.45;18.01;;;;;;;11.38;60.35;101268.41;458875;114;930054;-80
2021/09/10 03:23:25;;;;;;;28.08;18.11;;;;;;;11.37;60.28;101272.18;458977;113;922729;-80
2021/09/10 03:24:29;;;;;;;28.42;18.32;;;;;;;11.35;60.21;101266.95;459340;113;931122;-80
2021/09/10 03:25:33;;;;;;;37.36;17.75;;;;;;;11.36;60.08;101265.06;460888;113;923095;-82
2021/09/10 03:26:36;;;;;;;24.63;17.44;;;;;;;11.37;59.98;101264.83;451212;116;930661;-81
2021/09/10 03:27:40;;;;;;;25.38;17.84;;;;;;;11.37;59.89;101258.53;452434;114;930618;-81
2021/09/10 03:28:44;;;;;;;31.14;17.95;;;;;;;11.38;59.86;101266.52;462854;113;922871;-81
2021/09/10 03:29:47;;;;;;;29.07;18.63;;;;;;;11.38;59.73;101266.52;462368;113;930331;-81
2021/09/10 03:30:51;;;;;;;29.49;18.23;;;;;;;11.40;59.73;101258.14;461399;113;930397;-80
2021/09/10 03:31:54;;;;;;;29.89;17.02;;;;;;;11.41;59.66;101266.10;459766;113;930220;-81
2021/09/10 03:32:58;;;;;;;27.26;18.02;;;;;;;11.43;59.64;101264.02;461621;113;930629;-81
2021/09/10 03:34:02;;;;;;;31.75;16.55;;;;;;;11.44;59.56;101262.98;460615;113;930526;-81
2021/09/10 03:35:06;;;;;;;24.72;16.12;;;;;;;11.47;59.47;101264.45;460864;113;922515;-81
2021/09/10 03:36:09;;;;;;;23.14;17.01;;;;;;;11.47;59.39;101264.45;462181;113;930569;-81
2021/09/10 03:37:13;;;;;;;30.94;17.27;;;;;;;11.48;59.33;101260.67;461880;113;923448;-82
2021/09/10 03:38:17;;;;;;;27.00;17.75;;;;;;;11.49;59.18;101270.56;462540;113;922403;-81
2021/09/10 03:39:20;;;;;;;32.78;17.59;;;;;;;11.48;59.01;101266.98;462871;113;922695;-81
2021/09/10 03:40:25;;;;;;;36.64;17.98;;;;;;;11.47;58.97;101275.38;461587;113;930444;-80
2021/09/10 03:41:28;;;;;;;30.90;18.09;;;;;;;11.46;58.97;101269.09;461733;113;930369;-80
2021/09/10 03:42:32;;;;;;;30.89;17.50;;;;;;;11.47;58.96;101275.38;461237;113;923112;-82
2021/09/10 03:43:38;;;;;;;30.43;16.42;;;;;;;11.48;59.02;101272.45;462385;113;923062;-81
2021/09/10 03:44:42;;;;;;;34.04;17.56;;;;;;;11.48;59.06;101269.72;462971;113;922598;-82
2021/09/10 03:45:47;;;;;;;34.93;16.49;;;;;;;11.50;59.04;101274.98;462139;113;922538;-81
2021/09/10 03:46:51;;;;;;;22.39;17.31;;;;;;;11.51;59.02;101265.75;458791;114;922636;-81
2021/09/10 03:47:54;;;;;;;31.01;17.53;;;;;;;11.52;59.02;101267.44;460289;114;923096;-82
2021/09/10 03:48:58;;;;;;;36.10;18.82;;;;;;;11.55;58.98;101269.75;462137;113;922477;-81
2021/09/10 03:50:01;;;;;;;36.54;18.11;;;;;;;11.57;58.91;101267.66;462826;113;923481;-81
2021/09/10 03:51:05;;;;;;;33.25;18.41;;;;;;;11.58;58.87;101266.59;462328;113;922661;-80
2021/09/10 03:52:09;;;;;;;29.59;17.49;;;;;;;11.59;58.76;101262.81;461873;113;923307;-82
2021/09/10 03:53:12;;;;;;;30.82;16.40;;;;;;;11.60;58.71;101269.97;464412;113;929802;-80
2021/09/10 03:54:16;;;;;;;28.79;16.82;;;;;;;11.62;58.63;101273.35;462316;113;922527;-80
2021/09/10 03:55:19;;;;;;;34.62;16.79;;;;;;;11.62;58.60;101268.73;463119;113;930259;-81
2021/09/10 03:56:23;;;;;;;40.00;17.24;;;;;;;11.63;58.52;101272.31;461634;113;922599;-82
2021/09/10 03:57:27;;;;;;;34.39;16.36;;;;;;;11.64;58.46;101272.08;462530;113;922680;-80
2021/09/10 03:58:31;;;;;;;38.82;16.37;;;;;;;11.65;58.42;101272.92;461883;113;922605;-81
2021/09/10 03:59:36;;;;;;;24.37;16.18;;;;;;;11.66;58.44;101272.73;462159;112;930441;-81
2021/09/10 04:00:40;;;;;;;33.98;16.97;;;;;;;11.67;58.36;101268.11;462379;113;922670;-80
2021/09/10 04:01:44;;;;;;;30.16;15.93;;;;;;;11.67;58.21;101271.69;462373;113;923056;-82
2021/09/10 04:02:49;;;;;;;28.34;17.16;;;;;;;11.67;58.10;101274.42;461941;113;923146;-80
2021/09/10 04:03:53;;;;;;;33.90;16.48;;;;;;;11.66;58.02;101267.27;462000;113;922319;-80
2021/09/10 04:04:57;;;;;;;31.86;17.87;;;;;;;11.66;58.08;101269.16;463103;113;922897;-81
2021/09/10 04:06:01;;;;;;;30.63;17.39;;;;;;;11.66;58.13;101263.69;463523;113;922575;-81
2021/09/10 04:07:05;;;;;;;32.74;17.55;;;;;;;11.68;58.13;101267.07;461779;113;922814;-81
2021/09/10 04:08:09;;;;;;;28.44;18.15;;;;;;;11.70;58.10;101270.42;460949;113;923077;-81
2021/09/10 04:09:13;;;;;;;31.03;17.54;;;;;;;11.72;58.12;101276.53;462395;113;922489;-81
2021/09/10 04:10:17;;;;;;;31.39;18.29;;;;;;;11.74;58.02;101270.91;462907;113;930168;-80
2021/09/10 04:11:23;;;;;;;31.54;17.69;;;;;;;11.75;57.97;101278.03;462759;113;922154;-80
2021/09/10 04:12:28;;;;;;;29.19;18.22;;;;;;;11.77;58.00;101274.05;463053;113;922250;-80
2021/09/10 04:13:32;;;;;;;29.46;16.97;;;;;;;11.80;57.94;101270.09;463111;113;922633;-79
2021/09/10 04:14:36;;;;;;;29.67;18.97;;;;;;;11.81;57.88;101272.59;461321;113;929849;-80
2021/09/10 04:15:40;;;;;;;35.28;18.98;;;;;;;11.83;57.86;101267.77;457209;114;922621;-81
2021/09/10 04:16:45;;;;;;;33.92;19.27;;;;;;;11.84;57.86;101266.73;458420;114;922499;-82
2021/09/10 04:17:49;;;;;;;36.36;18.79;;;;;;;11.86;57.83;101274.70;462481;113;930212;-80
2021/09/10 04:18:52;;;;;;;41.85;18.72;;;;;;;11.88;57.82;101276.19;461799;112;922407;-79
2021/09/10 04:19:55;;;;;;;39.52;18.85;;;;;;;11.90;57.74;101275.99;464054;113;930586;-81
2021/09/10 04:20:59;;;;;;;49.93;19.09;;;;;;;11.92;57.67;101271.98;460813;113;922649;-80
2021/09/10 04:22:03;;;;;;;34.66;18.65;;;;;;;11.96;57.63;101275.17;462591;113;930743;-79
2021/09/10 04:23:06;;;;;;;33.68;18.36;;;;;;;12.01;57.64;101276.23;461481;113;930463;-80
2021/09/10 04:24:17;;;;;;;37.22;18.71;;;;;;;12.05;57.54;101269.29;462356;113;922402;-81
2021/09/10 04:25:17;;;;;;;34.39;18.73;;;;;;;12.11;57.47;101273.93;461575;113;930579;-80
2021/09/10 04:26:21;;;;;;;32.61;18.26;;;;;;;12.16;57.42;101270.56;462237;113;922381;-81
2021/09/10 04:27:25;;;;;;;34.29;17.75;;;;;;;12.21;57.39;101265.31;462448;113;922774;-80
2021/09/10 04:28:28;;;;;;;36.24;18.11;;;;;;;12.28;57.48;101265.33;462990;113;922983;-82
2021/09/10 04:29:32;;;;;;;36.98;18.24;;;;;;;12.34;57.43;101265.33;462032;113;930283;-80
2021/09/10 04:30:35;;;;;;;38.73;18.72;;;;;;;12.40;57.32;101260.92;462525;113;922537;-80
2021/09/10 04:31:39;;;;;;;66.63;20.89;;;;;;;12.45;57.26;101261.97;462228;114;930082;-82
2021/09/10 04:32:43;;;;;;;57.55;18.44;;;;;;;12.51;57.19;101257.55;463675;113;930056;-82
2021/09/10 04:33:47;;;;;;;33.85;18.58;;;;;;;12.56;57.08;101262.38;461540;113;922574;-81
2021/09/10 04:34:51;;;;;;;41.06;18.90;;;;;;;12.59;56.98;101267.42;463826;113;930291;-81
2021/09/10 04:35:54;;;;;;;53.61;19.80;;;;;;;12.63;56.85;101261.30;462300;113;922315;-81
2021/09/10 04:36:58;;;;;;;35.88;19.00;;;;;;;12.67;56.70;101262.59;463300;113;923082;-81
2021/09/10 04:38:02;;;;;;;44.62;19.61;;;;;;;12.68;56.60;101257.96;460413;113;930201;-82
2021/09/10 04:39:06;;;;;;;33.46;18.73;;;;;;;12.68;56.53;101260.70;462118;113;922781;-81
2021/09/10 04:40:10;;;;;;;32.56;18.71;;;;;;;12.65;56.52;101259.21;461466;113;929963;-82
2021/09/10 04:41:14;;;;;;;30.05;18.21;;;;;;;12.64;56.59;101254.78;461285;113;922234;-81
2021/09/10 04:42:17;;;;;;;45.51;19.70;;;;;;;12.64;56.66;101259.41;461872;113;930164;-81
2021/09/10 04:43:21;;;;;;;41.89;19.79;;;;;;;12.65;56.68;101259.21;462230;113;930162;-80
2021/09/10 04:44:24;;;;;;;45.78;21.17;;;;;;;12.63;56.77;101258.57;463982;113;922435;-81
2021/09/10 04:45:28;;;;;;;36.48;20.48;;;;;;;12.63;56.87;101255.83;462804;113;922402;-82
2021/09/10 04:46:33;;;;;;;41.38;20.49;;;;;;;12.62;56.94;101262.39;461930;113;930372;-81
2021/09/10 04:47:37;;;;;;;35.73;20.46;;;;;;;12.60;57.09;101252.69;464259;113;922989;-81